< Cyclone 201114 2011 Season Cyclone 201117 >
Cyclone 201116 (Dianne)
General InformationTrack Information on Google MapsDetailed Wind InformationList of All Images || ResourceGoogle EarthGE AnimationAtom FeedGeoJSON
Detalied Best Track (Time Zone = UTC)
Year Month Day Hour Lat. Long. Pressure (hPa) Wind (kt) Class Image Chart
2011 2 14 01 -15.8 119.3 1000 0 0 Image --
2011 2 14 06 -16.5 118.6 1000 20 2 Image --
2011 2 14 12 -17.7 117.5 1000 20 2 Image --
2011 2 14 18 -18.2 115.4 1000 25 2 Image --
2011 2 14 23 -18.4 114.7 1000 25 0 Image --
2011 2 15 00 -18.5 114.4 1000 25 2 Image --
2011 2 15 06 -18.8 112.7 1000 25 2 Image --
2011 2 15 12 -19.0 112.2 1000 25 2 Image --
2011 2 15 18 -19.1 112.0 996 30 2 Image --
2011 2 16 00 -19.0 111.8 996 30 2 Image --
2011 2 16 06 -18.9 111.6 996 30 2 Image --
2011 2 16 12 -18.9 111.4 996 30 2 Image --
2011 2 16 18 -19.1 111.1 990 40 3 Image --
2011 2 17 00 -19.1 110.9 985 45 3 Image --
2011 2 17 06 -18.6 110.6 983 50 4 Image --
2011 2 17 12 -18.9 110.6 978 50 4 Image --
2011 2 17 18 -19.4 110.3 978 50 4 Image --
2011 2 18 00 -19.7 110.0 978 50 4 Image --
2011 2 18 06 -20.2 109.4 978 50 4 Image --
2011 2 18 12 -20.7 108.8 978 50 4 Image --
2011 2 18 18 -20.8 108.3 976 55 4 Image --
2011 2 19 00 -21.4 108.1 970 65 5 Image --
2011 2 19 06 -22.1 107.9 966 70 5 Image --
2011 2 19 12 -22.6 107.8 961 75 5 Image --
2011 2 19 18 -23.1 107.5 960 75 5 Image --
2011 2 20 00 -23.6 107.4 963 70 5 Image --
2011 2 20 06 -24.2 106.8 963 70 5 Image --
2011 2 20 12 -24.5 106.0 967 65 5 Image --
2011 2 20 18 -24.8 105.1 968 65 5 Image --
2011 2 21 00 -25.0 104.1 976 60 4 Image --
2011 2 21 06 -25.7 103.1 983 50 4 Image --
2011 2 21 12 -26.4 102.5 988 40 3 Image --
2011 2 21 18 -27.1 102.1 990 35 3 Image --
2011 2 22 00 -28.3 102.0 994 30 2 Image --
2011 2 22 06 -29.4 102.2 997 25 2 Image --
2011 2 22 12 -30.3 102.7 998 25 2 Image --
2011 2 22 18 -30.8 102.5 998 20 2 Image --
2011 2 23 00 -31.0 102.5 999 20 2 Image --
2011 2 23 06 -31.5 102.6 1000 20 2 Image --
< Cyclone 201114 2011 Season Cyclone 201117 >

Help